Terminal Aerodrome Forecast
Issued by NWS Flagstaff, AZ

Home | Current Version | Previous Version | Text Only | Print | Product List | Glossary On
Versions: 1 2 3 4 5 6 7 8 9 10 11 12 13 14 15 16 17 18 19 20 21 22 23 24
000
FTUS45 KFGZ 041127
TAFINW
TAF
KINW 041127Z 0412/0512 VRB05KT P6SM SCT080
     FM041900 23012G22KT P6SM VCSH BKN060 OVC100
      TEMPO 0419/0423 VRB20G30KT 5SM -TSRA OVC050CB
     FM050400 22008KT P6SM VCTS SCT060CB OVC100=

USA.gov is the U.S. government's official web portal to all federal, state and local government web resources and services.